Strona główna
METAR-TAF:

METAR-TAF

Lotnisko :

Port lotniczy Tegucigalpa-Toncontin

Tegucigalpa, Honduras

Szerokość geograficzna: 14-03N, Długość geograficzna: 087-13W, wysokość: 994 m

Aktualna obserwacja pogody

Raport powstał 17 minut temu, godzina 04:00 UTC
Cisza
Temperatura 19°C
Wilgotność 78%
Ciśnienie 1020 hPa
Widzialność 10 km lub więcej
Rozproszone chmury na wysokości 2800 ft
Rozproszone chmury na wysokości 8000 ft

METAR: MHTG 110400Z 00000KT 9999 SCT028 SCT080 19/15 Q1020 A3012 NOSIG

czas: 22:17 (04:17 UTC)

Prognoza

Raport powstał 5 godziny i 52 minut temu, godzina 22:25 UTC
Prognoza ważna od 11 godzina 00 UTC do 11 godzina 24 UTC
Wiatr 4 kt od północ
Widzialność 10 km lub więcej
Mało chmury na wysokości 2800 ft
Rozproszone chmury na wysokości 8000 ft
Stopniowe zmiany
od 11 godzina 04 UTC do 11 godzina 06 UTC
Mało chmury na wysokości 1200 ft
Przerywane chmury na wysokości 2800 ft
Stopniowe zmiany
od 11 godzina 15 UTC do 11 godzina 17 UTC
Wiatr 12 kt od północno-północny wschód
Widzialność 10 km lub więcej
Mało chmury na wysokości 2800 ft
Rozproszone chmury na wysokości 8000 ft
Rozproszone chmury na wysokości 3000 ft
Stopniowe zmiany
od 11 godzina 03 UTC do 11 godzina 05 UTC
Wiatr 3 kt od południowo-południowy zachód
Przerywane chmury na wysokości 2500 ft
Stopniowe zmiany
od 11 godzina 15 UTC do 11 godzina 17 UTC
Wiatr 10 kt od północno-północny wschód
Rozproszone chmury na wysokości 2800 ft, Cumulusy wypiętrznone.

TAF: MHTG 102225Z 1100/1124 36004KT 9999 FEW028 SCT080 TX27/1120Z TN16/1112Z BECMG 1104/1106 FEW012 BKN028 BECMG 1115/1117 FEW028 SCT080 MHLM 102225Z 1100/1124 03012KT 9999 SCT030 TX32/1120Z TN23/1112Z BECMG 1103/1105 21003KT BKN025 BECMG 1115/1117 02010KT SCT028TCU

Obserwacja i prognoza pogody dla ponad 4000 lotnisk (raport METAR i TAF).

Dostępne stacje oznaczono żółtymi i czerwonymi punktami na mapie.

Najedź kursorem aby zobaczyć nazwę stacji.

Kliknij aby zobaczyć obserwacje i prognozy pogody.

Aby zmienić mapę: kliknij na zielony przycisk z czarnym krzyżykiem, aby powiększyć; na zielony przycisk z myślnikiem, aby pomniejszyć; na zielone strzałki, aby przejść do map sąsiednich.


METAR-TAF: